sensor_id;sensor_type;location;lat;lon;timestamp;P1;durP1;ratioP1;P2;durP2;ratioP2
6127;SDS011;7073;42.672;23.256;2023-07-30T00:00:01;3.60;;;3.40;;
6127;SDS011;7073;42.672;23.256;2023-07-30T00:02:28;5.60;;;4.83;;
6127;SDS011;7073;42.672;23.256;2023-07-30T00:04:54;4.73;;;4.17;;
6127;SDS011;7073;42.672;23.256;2023-07-30T00:07:21;3.80;;;3.60;;
6127;SDS011;7073;42.672;23.256;2023-07-30T00:09:49;4.63;;;4.33;;
6127;SDS011;7073;42.672;23.256;2023-07-30T00:12:15;3.63;;;3.43;;
6127;SDS011;7073;42.672;23.256;2023-07-30T00:14:42;3.50;;;3.30;;
6127;SDS011;7073;42.672;23.256;2023-07-30T00:17:09;3.60;;;3.40;;
6127;SDS011;7073;42.672;23.256;2023-07-30T00:19:35;3.20;;;3.10;;
6127;SDS011;7073;42.672;23.256;2023-07-30T00:22:02;4.20;;;3.90;;
6127;SDS011;7073;42.672;23.256;2023-07-30T00:24:28;3.83;;;3.63;;
6127;SDS011;7073;42.672;23.256;2023-07-30T00:26:58;4.30;;;4.00;;
6127;SDS011;7073;42.672;23.256;2023-07-30T00:29:24;4.10;;;3.87;;
6127;SDS011;7073;42.672;23.256;2023-07-30T00:31:51;4.27;;;4.07;;
6127;SDS011;7073;42.672;23.256;2023-07-30T00:34:16;3.10;;;3.00;;
6127;SDS011;7073;42.672;23.256;2023-07-30T00:36:43;3.83;;;3.60;;
6127;SDS011;7073;42.672;23.256;2023-07-30T00:39:09;3.87;;;3.57;;
6127;SDS011;7073;42.672;23.256;2023-07-30T00:41:37;4.23;;;3.93;;
6127;SDS011;7073;42.672;23.256;2023-07-30T00:44:05;4.03;;;3.80;;
6127;SDS011;7073;42.672;23.256;2023-07-30T00:46:32;3.90;;;3.70;;
6127;SDS011;7073;42.672;23.256;2023-07-30T00:48:58;3.77;;;3.57;;
6127;SDS011;7073;42.672;23.256;2023-07-30T00:51:25;2.90;;;2.80;;
6127;SDS011;7073;42.672;23.256;2023-07-30T00:53:52;3.00;;;2.90;;
6127;SDS011;7073;42.672;23.256;2023-07-30T00:56:19;3.20;;;3.10;;
6127;SDS011;7073;42.672;23.256;2023-07-30T00:58:45;3.90;;;3.70;;
6127;SDS011;7073;42.672;23.256;2023-07-30T01:01:16;4.70;;;4.13;;
6127;SDS011;7073;42.672;23.256;2023-07-30T01:03:42;3.30;;;3.20;;
6127;SDS011;7073;42.672;23.256;2023-07-30T01:06:09;3.77;;;3.57;;
6127;SDS011;7073;42.672;23.256;2023-07-30T01:08:35;3.43;;;3.23;;
6127;SDS011;7073;42.672;23.256;2023-07-30T01:11:02;2.90;;;2.80;;
6127;SDS011;7073;42.672;23.256;2023-07-30T01:13:29;3.33;;;3.13;;
6127;SDS011;7073;42.672;23.256;2023-07-30T01:15:55;3.80;;;3.60;;
6127;SDS011;7073;42.672;23.256;2023-07-30T01:18:23;4.60;;;4.27;;
6127;SDS011;7073;42.672;23.256;2023-07-30T01:20:54;3.97;;;3.73;;
6127;SDS011;7073;42.672;23.256;2023-07-30T01:23:23;4.20;;;3.90;;
6127;SDS011;7073;42.672;23.256;2023-07-30T01:25:51;4.00;;;3.80;;
6127;SDS011;7073;42.672;23.256;2023-07-30T01:28:21;3.40;;;3.20;;
6127;SDS011;7073;42.672;23.256;2023-07-30T01:30:48;3.00;;;2.90;;
6127;SDS011;7073;42.672;23.256;2023-07-30T01:33:15;3.00;;;2.90;;
6127;SDS011;7073;42.672;23.256;2023-07-30T01:35:41;2.90;;;2.80;;
6127;SDS011;7073;42.672;23.256;2023-07-30T01:38:10;3.70;;;3.50;;
6127;SDS011;7073;42.672;23.256;2023-07-30T01:40:37;3.10;;;3.00;;
6127;SDS011;7073;42.672;23.256;2023-07-30T01:43:04;3.70;;;3.50;;
6127;SDS011;7073;42.672;23.256;2023-07-30T01:45:30;3.20;;;3.10;;
6127;SDS011;7073;42.672;23.256;2023-07-30T01:47:59;3.30;;;3.20;;
6127;SDS011;7073;42.672;23.256;2023-07-30T01:50:26;3.10;;;3.00;;
6127;SDS011;7073;42.672;23.256;2023-07-30T01:52:52;3.20;;;3.10;;
6127;SDS011;7073;42.672;23.256;2023-07-30T01:55:20;3.97;;;3.77;;
6127;SDS011;7073;42.672;23.256;2023-07-30T01:57:47;3.87;;;3.67;;
6127;SDS011;7073;42.672;23.256;2023-07-30T02:00:13;3.80;;;3.60;;
6127;SDS011;7073;42.672;23.256;2023-07-30T02:02:40;4.47;;;3.60;;
6127;SDS011;7073;42.672;23.256;2023-07-30T02:05:06;4.10;;;3.90;;
6127;SDS011;7073;42.672;23.256;2023-07-30T02:07:33;5.17;;;4.87;;
6127;SDS011;7073;42.672;23.256;2023-07-30T02:09:59;3.40;;;3.20;;
6127;SDS011;7073;42.672;23.256;2023-07-30T02:12:27;4.70;;;4.50;;
6127;SDS011;7073;42.672;23.256;2023-07-30T02:14:54;2.80;;;2.70;;
6127;SDS011;7073;42.672;23.256;2023-07-30T02:17:20;3.20;;;3.00;;
6127;SDS011;7073;42.672;23.256;2023-07-30T02:19:47;3.20;;;3.10;;
6127;SDS011;7073;42.672;23.256;2023-07-30T02:22:13;2.70;;;2.60;;
6127;SDS011;7073;42.672;23.256;2023-07-30T02:24:40;2.60;;;2.50;;
6127;SDS011;7073;42.672;23.256;2023-07-30T02:27:06;3.57;;;3.37;;
6127;SDS011;7073;42.672;23.256;2023-07-30T02:29:34;3.83;;;3.63;;
6127;SDS011;7073;42.672;23.256;2023-07-30T02:32:01;3.13;;;3.03;;
6127;SDS011;7073;42.672;23.256;2023-07-30T02:34:27;3.70;;;3.50;;
6127;SDS011;7073;42.672;23.256;2023-07-30T02:36:54;3.43;;;3.23;;
6127;SDS011;7073;42.672;23.256;2023-07-30T02:39:20;3.83;;;3.63;;
6127;SDS011;7073;42.672;23.256;2023-07-30T02:41:47;6.40;;;3.90;;
6127;SDS011;7073;42.672;23.256;2023-07-30T02:44:13;3.83;;;3.57;;
6127;SDS011;7073;42.672;23.256;2023-07-30T02:46:41;3.43;;;3.23;;
6127;SDS011;7073;42.672;23.256;2023-07-30T02:49:08;3.33;;;3.13;;
6127;SDS011;7073;42.672;23.256;2023-07-30T02:51:34;3.63;;;3.30;;
6127;SDS011;7073;42.672;23.256;2023-07-30T02:54:03;11.43;;;4.10;;
6127;SDS011;7073;42.672;23.256;2023-07-30T02:56:30;3.70;;;3.40;;
6127;SDS011;7073;42.672;23.256;2023-07-30T02:58:57;2.70;;;2.60;;
6127;SDS011;7073;42.672;23.256;2023-07-30T03:01:23;3.50;;;3.30;;
6127;SDS011;7073;42.672;23.256;2023-07-30T03:03:51;2.80;;;2.70;;
6127;SDS011;7073;42.672;23.256;2023-07-30T03:06:17;2.83;;;2.73;;
6127;SDS011;7073;42.672;23.256;2023-07-30T03:08:44;4.73;;;4.03;;
6127;SDS011;7073;42.672;23.256;2023-07-30T03:11:10;3.30;;;3.10;;
6127;SDS011;7073;42.672;23.256;2023-07-30T03:13:38;4.77;;;4.37;;
6127;SDS011;7073;42.672;23.256;2023-07-30T03:16:05;4.40;;;4.10;;
6127;SDS011;7073;42.672;23.256;2023-07-30T03:18:32;4.30;;;4.00;;
6127;SDS011;7073;42.672;23.256;2023-07-30T03:21:00;3.27;;;3.07;;
6127;SDS011;7073;42.672;23.256;2023-07-30T03:23:26;2.53;;;2.43;;
6127;SDS011;7073;42.672;23.256;2023-07-30T03:25:53;2.80;;;2.70;;
6127;SDS011;7073;42.672;23.256;2023-07-30T03:28:19;3.43;;;3.23;;
6127;SDS011;7073;42.672;23.256;2023-07-30T03:30:46;4.43;;;4.20;;
6127;SDS011;7073;42.672;23.256;2023-07-30T03:33:12;4.83;;;4.50;;
6127;SDS011;7073;42.672;23.256;2023-07-30T03:35:39;2.53;;;2.43;;
6127;SDS011;7073;42.672;23.256;2023-07-30T03:38:06;4.00;;;3.80;;
6127;SDS011;7073;42.672;23.256;2023-07-30T03:40:33;2.70;;;2.60;;
6127;SDS011;7073;42.672;23.256;2023-07-30T03:42:59;2.40;;;2.30;;
6127;SDS011;7073;42.672;23.256;2023-07-30T03:45:26;2.80;;;2.70;;
6127;SDS011;7073;42.672;23.256;2023-07-30T03:47:52;2.60;;;2.50;;
6127;SDS011;7073;42.672;23.256;2023-07-30T03:50:19;3.00;;;2.80;;
6127;SDS011;7073;42.672;23.256;2023-07-30T03:52:46;2.60;;;2.50;;
6127;SDS011;7073;42.672;23.256;2023-07-30T03:55:13;3.40;;;3.20;;
6127;SDS011;7073;42.672;23.256;2023-07-30T03:57:40;11.83;;;3.40;;
6127;SDS011;7073;42.672;23.256;2023-07-30T04:00:07;4.20;;;3.90;;
6127;SDS011;7073;42.672;23.256;2023-07-30T04:02:33;2.60;;;2.50;;
6127;SDS011;7073;42.672;23.256;2023-07-30T04:05:00;2.80;;;2.60;;
6127;SDS011;7073;42.672;23.256;2023-07-30T04:07:26;2.30;;;2.20;;
6127;SDS011;7073;42.672;23.256;2023-07-30T04:09:53;2.40;;;2.30;;
6127;SDS011;7073;42.672;23.256;2023-07-30T04:12:21;2.80;;;2.70;;
6127;SDS011;7073;42.672;23.256;2023-07-30T04:14:48;2.50;;;2.40;;
6127;SDS011;7073;42.672;23.256;2023-07-30T04:17:14;4.00;;;3.70;;
6127;SDS011;7073;42.672;23.256;2023-07-30T04:19:41;3.00;;;2.80;;
6127;SDS011;7073;42.672;23.256;2023-07-30T04:22:08;3.37;;;3.17;;
6127;SDS011;7073;42.672;23.256;2023-07-30T04:24:34;3.33;;;3.03;;
6127;SDS011;7073;42.672;23.256;2023-07-30T04:27:01;2.60;;;2.50;;
6127;SDS011;7073;42.672;23.256;2023-07-30T04:29:29;2.53;;;2.43;;
6127;SDS011;7073;42.672;23.256;2023-07-30T04:31:56;3.13;;;3.03;;
6127;SDS011;7073;42.672;23.256;2023-07-30T04:34:22;3.03;;;2.93;;
6127;SDS011;7073;42.672;23.256;2023-07-30T04:36:49;2.77;;;2.67;;
6127;SDS011;7073;42.672;23.256;2023-07-30T04:39:15;2.93;;;2.83;;
6127;SDS011;7073;42.672;23.256;2023-07-30T04:41:42;3.10;;;3.00;;
6127;SDS011;7073;42.672;23.256;2023-07-30T04:44:08;4.00;;;3.80;;
6127;SDS011;7073;42.672;23.256;2023-07-30T04:46:36;2.90;;;2.80;;
6127;SDS011;7073;42.672;23.256;2023-07-30T04:49:03;2.80;;;2.70;;
6127;SDS011;7073;42.672;23.256;2023-07-30T04:51:30;3.37;;;3.17;;
6127;SDS011;7073;42.672;23.256;2023-07-30T04:53:56;3.63;;;3.43;;
6127;SDS011;7073;42.672;23.256;2023-07-30T04:56:23;3.40;;;3.20;;
6127;SDS011;7073;42.672;23.256;2023-07-30T04:58:51;2.73;;;2.63;;
6127;SDS011;7073;42.672;23.256;2023-07-30T05:01:18;2.70;;;2.60;;
6127;SDS011;7073;42.672;23.256;2023-07-30T05:03:46;2.70;;;2.60;;
6127;SDS011;7073;42.672;23.256;2023-07-30T05:06:12;3.03;;;2.93;;
6127;SDS011;7073;42.672;23.256;2023-07-30T05:08:38;2.73;;;2.63;;
6127;SDS011;7073;42.672;23.256;2023-07-30T05:11:05;4.77;;;4.37;;
6127;SDS011;7073;42.672;23.256;2023-07-30T05:13:32;3.07;;;2.97;;
6127;SDS011;7073;42.672;23.256;2023-07-30T05:15:58;2.70;;;2.60;;
6127;SDS011;7073;42.672;23.256;2023-07-30T05:18:25;3.00;;;2.80;;
6127;SDS011;7073;42.672;23.256;2023-07-30T05:20:52;2.83;;;2.73;;
6127;SDS011;7073;42.672;23.256;2023-07-30T05:23:19;2.93;;;2.83;;
6127;SDS011;7073;42.672;23.256;2023-07-30T05:25:46;3.50;;;3.30;;
6127;SDS011;7073;42.672;23.256;2023-07-30T05:28:12;2.90;;;2.80;;
6127;SDS011;7073;42.672;23.256;2023-07-30T05:30:39;3.00;;;2.90;;
6127;SDS011;7073;42.672;23.256;2023-07-30T05:33:05;3.70;;;3.50;;
6127;SDS011;7073;42.672;23.256;2023-07-30T05:35:32;3.10;;;3.00;;
6127;SDS011;7073;42.672;23.256;2023-07-30T05:38:00;4.90;;;4.60;;
6127;SDS011;7073;42.672;23.256;2023-07-30T05:40:26;3.97;;;3.77;;
6127;SDS011;7073;42.672;23.256;2023-07-30T05:42:53;2.90;;;2.80;;
6127;SDS011;7073;42.672;23.256;2023-07-30T05:45:19;3.10;;;3.00;;
6127;SDS011;7073;42.672;23.256;2023-07-30T05:47:45;3.20;;;3.10;;
6127;SDS011;7073;42.672;23.256;2023-07-30T05:50:12;4.43;;;4.23;;
6127;SDS011;7073;42.672;23.256;2023-07-30T05:52:38;3.10;;;3.00;;
6127;SDS011;7073;42.672;23.256;2023-07-30T05:55:07;3.53;;;3.33;;
6127;SDS011;7073;42.672;23.256;2023-07-30T05:57:33;3.47;;;3.30;;
6127;SDS011;7073;42.672;23.256;2023-07-30T06:00:00;3.50;;;3.30;;
6127;SDS011;7073;42.672;23.256;2023-07-30T06:02:26;5.20;;;4.90;;
6127;SDS011;7073;42.672;23.256;2023-07-30T06:04:53;3.80;;;3.60;;
6127;SDS011;7073;42.672;23.256;2023-07-30T06:07:19;3.20;;;3.10;;
6127;SDS011;7073;42.672;23.256;2023-07-30T06:09:46;3.10;;;3.00;;
6127;SDS011;7073;42.672;23.256;2023-07-30T06:12:14;3.60;;;3.40;;
6127;SDS011;7073;42.672;23.256;2023-07-30T06:14:40;4.10;;;3.90;;
6127;SDS011;7073;42.672;23.256;2023-07-30T06:17:06;3.43;;;3.30;;
6127;SDS011;7073;42.672;23.256;2023-07-30T06:19:33;3.30;;;3.20;;
6127;SDS011;7073;42.672;23.256;2023-07-30T06:21:59;3.30;;;3.20;;
6127;SDS011;7073;42.672;23.256;2023-07-30T06:24:26;3.43;;;3.30;;
6127;SDS011;7073;42.672;23.256;2023-07-30T06:26:52;3.93;;;3.73;;
6127;SDS011;7073;42.672;23.256;2023-07-30T06:29:20;3.30;;;3.20;;
6127;SDS011;7073;42.672;23.256;2023-07-30T06:31:47;3.20;;;3.10;;
6127;SDS011;7073;42.672;23.256;2023-07-30T06:34:14;4.27;;;4.07;;
6127;SDS011;7073;42.672;23.256;2023-07-30T06:36:40;3.30;;;3.20;;
6127;SDS011;7073;42.672;23.256;2023-07-30T06:39:07;3.20;;;3.10;;
6127;SDS011;7073;42.672;23.256;2023-07-30T06:41:33;3.37;;;3.23;;
6127;SDS011;7073;42.672;23.256;2023-07-30T06:44:00;5.97;;;4.17;;
6127;SDS011;7073;42.672;23.256;2023-07-30T06:46:27;3.50;;;3.30;;
6127;SDS011;7073;42.672;23.256;2023-07-30T06:48:54;3.77;;;3.57;;
6127;SDS011;7073;42.672;23.256;2023-07-30T06:51:23;3.57;;;3.37;;
6127;SDS011;7073;42.672;23.256;2023-07-30T06:53:50;4.20;;;4.00;;
6127;SDS011;7073;42.672;23.256;2023-07-30T06:56:16;3.80;;;3.50;;
6127;SDS011;7073;42.672;23.256;2023-07-30T06:58:43;3.97;;;3.77;;
6127;SDS011;7073;42.672;23.256;2023-07-30T07:01:09;3.20;;;3.10;;
6127;SDS011;7073;42.672;23.256;2023-07-30T07:03:37;3.33;;;3.23;;
6127;SDS011;7073;42.672;23.256;2023-07-30T07:06:04;3.87;;;3.67;;
6127;SDS011;7073;42.672;23.256;2023-07-30T07:08:31;3.60;;;3.40;;
6127;SDS011;7073;42.672;23.256;2023-07-30T07:10:58;4.10;;;3.90;;
6127;SDS011;7073;42.672;23.256;2023-07-30T07:13:24;4.40;;;4.20;;
6127;SDS011;7073;42.672;23.256;2023-07-30T07:15:51;4.40;;;4.20;;
6127;SDS011;7073;42.672;23.256;2023-07-30T07:18:17;4.50;;;4.30;;
6127;SDS011;7073;42.672;23.256;2023-07-30T07:20:45;4.27;;;4.07;;
6127;SDS011;7073;42.672;23.256;2023-07-30T07:23:12;4.20;;;4.00;;
6127;SDS011;7073;42.672;23.256;2023-07-30T07:25:38;4.30;;;4.10;;
6127;SDS011;7073;42.672;23.256;2023-07-30T07:28:05;4.27;;;4.07;;
6127;SDS011;7073;42.672;23.256;2023-07-30T07:30:34;4.67;;;4.47;;
6127;SDS011;7073;42.672;23.256;2023-07-30T07:33:00;3.80;;;3.60;;
6127;SDS011;7073;42.672;23.256;2023-07-30T07:35:27;4.57;;;4.37;;
6127;SDS011;7073;42.672;23.256;2023-07-30T07:37:54;5.30;;;5.00;;
6127;SDS011;7073;42.672;23.256;2023-07-30T07:40:21;4.00;;;3.80;;
6127;SDS011;7073;42.672;23.256;2023-07-30T07:42:47;4.07;;;3.87;;
6127;SDS011;7073;42.672;23.256;2023-07-30T07:45:14;3.60;;;3.40;;
6127;SDS011;7073;42.672;23.256;2023-07-30T07:47:40;3.40;;;3.30;;
6127;SDS011;7073;42.672;23.256;2023-07-30T07:50:07;3.90;;;3.70;;
6127;SDS011;7073;42.672;23.256;2023-07-30T07:52:34;3.80;;;3.60;;
6127;SDS011;7073;42.672;23.256;2023-07-30T07:55:02;3.77;;;3.57;;
6127;SDS011;7073;42.672;23.256;2023-07-30T07:57:28;3.90;;;3.70;;
6127;SDS011;7073;42.672;23.256;2023-07-30T07:59:56;4.03;;;3.83;;
6127;SDS011;7073;42.672;23.256;2023-07-30T08:02:22;4.27;;;4.07;;
6127;SDS011;7073;42.672;23.256;2023-07-30T08:04:49;3.90;;;3.70;;
6127;SDS011;7073;42.672;23.256;2023-07-30T08:07:16;4.10;;;3.90;;
6127;SDS011;7073;42.672;23.256;2023-07-30T08:09:42;4.20;;;4.00;;
6127;SDS011;7073;42.672;23.256;2023-07-30T08:12:10;3.97;;;3.77;;
6127;SDS011;7073;42.672;23.256;2023-07-30T08:14:37;4.03;;;3.83;;
6127;SDS011;7073;42.672;23.256;2023-07-30T08:17:04;4.30;;;4.10;;
6127;SDS011;7073;42.672;23.256;2023-07-30T08:19:31;4.30;;;4.10;;
6127;SDS011;7073;42.672;23.256;2023-07-30T08:21:57;4.70;;;4.50;;
6127;SDS011;7073;42.672;23.256;2023-07-30T08:24:24;4.20;;;4.00;;
6127;SDS011;7073;42.672;23.256;2023-07-30T08:26:50;3.90;;;3.70;;
6127;SDS011;7073;42.672;23.256;2023-07-30T08:29:18;4.27;;;4.07;;
6127;SDS011;7073;42.672;23.256;2023-07-30T08:31:45;5.57;;;5.37;;
6127;SDS011;7073;42.672;23.256;2023-07-30T08:34:11;4.60;;;4.40;;
6127;SDS011;7073;42.672;23.256;2023-07-30T08:36:38;4.53;;;4.33;;
6127;SDS011;7073;42.672;23.256;2023-07-30T08:39:04;4.10;;;3.90;;
6127;SDS011;7073;42.672;23.256;2023-07-30T08:41:31;4.20;;;4.00;;
6127;SDS011;7073;42.672;23.256;2023-07-30T08:43:57;4.33;;;4.13;;
6127;SDS011;7073;42.672;23.256;2023-07-30T08:46:25;4.40;;;4.20;;
6127;SDS011;7073;42.672;23.256;2023-07-30T08:48:53;4.40;;;4.20;;
6127;SDS011;7073;42.672;23.256;2023-07-30T08:51:22;4.20;;;4.00;;
6127;SDS011;7073;42.672;23.256;2023-07-30T08:53:50;4.40;;;4.20;;
6127;SDS011;7073;42.672;23.256;2023-07-30T08:56:17;4.40;;;4.20;;
6127;SDS011;7073;42.672;23.256;2023-07-30T08:58:44;4.00;;;3.80;;
6127;SDS011;7073;42.672;23.256;2023-07-30T09:01:11;3.73;;;3.53;;
6127;SDS011;7073;42.672;23.256;2023-07-30T09:03:40;5.13;;;4.83;;
6127;SDS011;7073;42.672;23.256;2023-07-30T09:06:06;4.50;;;4.30;;
6127;SDS011;7073;42.672;23.256;2023-07-30T09:08:33;5.47;;;5.27;;
6127;SDS011;7073;42.672;23.256;2023-07-30T09:11:06;6.50;;;6.20;;
6127;SDS011;7073;42.672;23.256;2023-07-30T09:13:35;5.40;;;5.20;;
6127;SDS011;7073;42.672;23.256;2023-07-30T09:16:07;6.70;;;6.40;;
6127;SDS011;7073;42.672;23.256;2023-07-30T09:18:38;5.13;;;4.93;;
6127;SDS011;7073;42.672;23.256;2023-07-30T09:21:06;4.80;;;4.60;;
6127;SDS011;7073;42.672;23.256;2023-07-30T09:23:32;4.77;;;4.57;;
6127;SDS011;7073;42.672;23.256;2023-07-30T09:26:05;4.10;;;3.90;;
6127;SDS011;7073;42.672;23.256;2023-07-30T09:28:31;4.30;;;4.10;;
6127;SDS011;7073;42.672;23.256;2023-07-30T09:30:59;4.30;;;4.10;;
6127;SDS011;7073;42.672;23.256;2023-07-30T09:33:26;4.50;;;4.30;;
6127;SDS011;7073;42.672;23.256;2023-07-30T09:35:52;4.30;;;4.10;;
6127;SDS011;7073;42.672;23.256;2023-07-30T09:38:22;4.53;;;4.33;;
6127;SDS011;7073;42.672;23.256;2023-07-30T09:40:48;5.70;;;5.30;;
6127;SDS011;7073;42.672;23.256;2023-07-30T09:43:15;6.23;;;5.70;;
6127;SDS011;7073;42.672;23.256;2023-07-30T09:45:44;5.53;;;5.33;;
6127;SDS011;7073;42.672;23.256;2023-07-30T09:48:10;5.53;;;5.23;;
6127;SDS011;7073;42.672;23.256;2023-07-30T09:50:37;4.60;;;4.40;;
6127;SDS011;7073;42.672;23.256;2023-07-30T09:53:04;4.70;;;4.50;;
6127;SDS011;7073;42.672;23.256;2023-07-30T09:55:32;4.70;;;4.50;;
6127;SDS011;7073;42.672;23.256;2023-07-30T09:57:58;4.60;;;4.40;;
6127;SDS011;7073;42.672;23.256;2023-07-30T10:00:25;4.50;;;4.30;;
6127;SDS011;7073;42.672;23.256;2023-07-30T10:02:52;5.97;;;5.57;;
6127;SDS011;7073;42.672;23.256;2023-07-30T10:05:22;5.63;;;5.33;;
6127;SDS011;7073;42.672;23.256;2023-07-30T10:07:51;4.67;;;4.47;;
6127;SDS011;7073;42.672;23.256;2023-07-30T10:10:19;5.47;;;5.27;;
6127;SDS011;7073;42.672;23.256;2023-07-30T10:12:48;5.80;;;5.50;;
6127;SDS011;7073;42.672;23.256;2023-07-30T10:15:18;5.53;;;5.33;;
6127;SDS011;7073;42.672;23.256;2023-07-30T10:17:45;5.30;;;5.10;;
6127;SDS011;7073;42.672;23.256;2023-07-30T10:20:19;5.80;;;5.33;;
6127;SDS011;7073;42.672;23.256;2023-07-30T10:22:46;4.50;;;4.30;;
6127;SDS011;7073;42.672;23.256;2023-07-30T10:25:12;5.20;;;5.00;;
6127;SDS011;7073;42.672;23.256;2023-07-30T10:27:40;4.30;;;4.10;;
6127;SDS011;7073;42.672;23.256;2023-07-30T10:30:10;5.00;;;4.80;;
6127;SDS011;7073;42.672;23.256;2023-07-30T10:32:37;5.37;;;5.17;;
6127;SDS011;7073;42.672;23.256;2023-07-30T10:35:04;6.20;;;5.90;;
6127;SDS011;7073;42.672;23.256;2023-07-30T10:37:31;5.37;;;5.07;;
6127;SDS011;7073;42.672;23.256;2023-07-30T10:39:57;5.80;;;5.60;;
6127;SDS011;7073;42.672;23.256;2023-07-30T10:42:24;5.40;;;5.20;;
6127;SDS011;7073;42.672;23.256;2023-07-30T10:44:58;5.40;;;5.10;;
6127;SDS011;7073;42.672;23.256;2023-07-30T10:47:27;5.63;;;5.43;;
6127;SDS011;7073;42.672;23.256;2023-07-30T10:49:54;5.50;;;5.30;;
6127;SDS011;7073;42.672;23.256;2023-07-30T10:52:26;6.57;;;6.27;;
6127;SDS011;7073;42.672;23.256;2023-07-30T10:54:59;6.10;;;5.70;;
6127;SDS011;7073;42.672;23.256;2023-07-30T10:57:29;5.30;;;4.90;;
6127;SDS011;7073;42.672;23.256;2023-07-30T10:59:55;5.37;;;5.17;;
6127;SDS011;7073;42.672;23.256;2023-07-30T11:02:22;5.90;;;5.70;;
6127;SDS011;7073;42.672;23.256;2023-07-30T11:04:50;7.80;;;7.30;;
6127;SDS011;7073;42.672;23.256;2023-07-30T11:07:17;5.30;;;5.10;;
6127;SDS011;7073;42.672;23.256;2023-07-30T11:09:44;6.63;;;6.33;;
6127;SDS011;7073;42.672;23.256;2023-07-30T11:12:10;5.40;;;5.20;;
6127;SDS011;7073;42.672;23.256;2023-07-30T11:14:37;7.83;;;7.40;;
6127;SDS011;7073;42.672;23.256;2023-07-30T11:17:03;6.20;;;6.00;;
6127;SDS011;7073;42.672;23.256;2023-07-30T11:19:30;5.33;;;5.13;;
6127;SDS011;7073;42.672;23.256;2023-07-30T11:22:00;6.00;;;5.80;;
6127;SDS011;7073;42.672;23.256;2023-07-30T11:24:34;7.37;;;6.97;;
6127;SDS011;7073;42.672;23.256;2023-07-30T11:27:01;5.00;;;4.80;;
6127;SDS011;7073;42.672;23.256;2023-07-30T11:29:28;7.50;;;7.20;;
6127;SDS011;7073;42.672;23.256;2023-07-30T11:31:55;7.73;;;7.33;;
6127;SDS011;7073;42.672;23.256;2023-07-30T11:34:22;6.43;;;6.23;;
6127;SDS011;7073;42.672;23.256;2023-07-30T11:36:49;7.10;;;6.70;;
6127;SDS011;7073;42.672;23.256;2023-07-30T11:39:17;5.50;;;5.30;;
6127;SDS011;7073;42.672;23.256;2023-07-30T11:41:43;6.00;;;5.80;;
6127;SDS011;7073;42.672;23.256;2023-07-30T11:44:19;5.87;;;5.67;;
6127;SDS011;7073;42.672;23.256;2023-07-30T11:46:55;6.00;;;5.80;;
6127;SDS011;7073;42.672;23.256;2023-07-30T11:49:21;5.30;;;5.10;;
6127;SDS011;7073;42.672;23.256;2023-07-30T11:51:48;7.27;;;6.77;;
6127;SDS011;7073;42.672;23.256;2023-07-30T11:54:20;6.20;;;6.00;;
6127;SDS011;7073;42.672;23.256;2023-07-30T11:56:47;6.40;;;6.20;;
6127;SDS011;7073;42.672;23.256;2023-07-30T11:59:20;7.27;;;7.00;;
6127;SDS011;7073;42.672;23.256;2023-07-30T12:01:47;7.00;;;6.60;;
6127;SDS011;7073;42.672;23.256;2023-07-30T12:04:13;8.10;;;7.70;;
6127;SDS011;7073;42.672;23.256;2023-07-30T12:06:40;9.70;;;9.00;;
6127;SDS011;7073;42.672;23.256;2023-07-30T12:09:10;7.00;;;6.70;;
6127;SDS011;7073;42.672;23.256;2023-07-30T12:11:45;6.80;;;6.60;;
6127;SDS011;7073;42.672;23.256;2023-07-30T12:14:12;7.03;;;6.83;;
6127;SDS011;7073;42.672;23.256;2023-07-30T12:16:38;8.70;;;8.30;;
6127;SDS011;7073;42.672;23.256;2023-07-30T12:19:05;7.57;;;7.27;;
6127;SDS011;7073;42.672;23.256;2023-07-30T12:21:32;6.10;;;5.90;;
6127;SDS011;7073;42.672;23.256;2023-07-30T12:23:59;7.63;;;7.23;;
6127;SDS011;7073;42.672;23.256;2023-07-30T12:26:25;5.80;;;5.60;;
6127;SDS011;7073;42.672;23.256;2023-07-30T12:28:53;5.53;;;5.33;;
6127;SDS011;7073;42.672;23.256;2023-07-30T12:31:20;5.80;;;5.60;;
6127;SDS011;7073;42.672;23.256;2023-07-30T12:33:46;6.30;;;6.00;;
6127;SDS011;7073;42.672;23.256;2023-07-30T12:36:13;5.67;;;5.47;;
6127;SDS011;7073;42.672;23.256;2023-07-30T12:38:39;5.33;;;5.13;;
6127;SDS011;7073;42.672;23.256;2023-07-30T12:41:06;7.23;;;6.80;;
6127;SDS011;7073;42.672;23.256;2023-07-30T12:43:33;5.20;;;5.00;;
6127;SDS011;7073;42.672;23.256;2023-07-30T12:46:00;6.77;;;6.37;;
6127;SDS011;7073;42.672;23.256;2023-07-30T12:48:27;5.40;;;5.20;;
6127;SDS011;7073;42.672;23.256;2023-07-30T12:50:53;4.97;;;4.77;;
6127;SDS011;7073;42.672;23.256;2023-07-30T12:53:20;5.87;;;5.67;;
6127;SDS011;7073;42.672;23.256;2023-07-30T12:55:47;5.00;;;4.80;;
6127;SDS011;7073;42.672;23.256;2023-07-30T12:58:13;5.43;;;5.23;;
6127;SDS011;7073;42.672;23.256;2023-07-30T13:00:40;5.00;;;4.80;;
6127;SDS011;7073;42.672;23.256;2023-07-30T13:03:07;7.67;;;5.83;;
6127;SDS011;7073;42.672;23.256;2023-07-30T13:05:34;5.83;;;5.63;;
6127;SDS011;7073;42.672;23.256;2023-07-30T13:08:01;6.30;;;6.10;;
6127;SDS011;7073;42.672;23.256;2023-07-30T13:10:27;5.60;;;5.40;;
6127;SDS011;7073;42.672;23.256;2023-07-30T13:12:54;5.93;;;5.60;;
6127;SDS011;7073;42.672;23.256;2023-07-30T13:15:20;4.90;;;4.70;;
6127;SDS011;7073;42.672;23.256;2023-07-30T13:17:47;5.00;;;4.80;;
6127;SDS011;7073;42.672;23.256;2023-07-30T13:20:15;5.53;;;5.33;;
6127;SDS011;7073;42.672;23.256;2023-07-30T13:22:42;5.60;;;5.40;;
6127;SDS011;7073;42.672;23.256;2023-07-30T13:25:08;5.30;;;5.10;;
6127;SDS011;7073;42.672;23.256;2023-07-30T13:27:35;5.27;;;5.07;;
6127;SDS011;7073;42.672;23.256;2023-07-30T13:30:01;4.77;;;4.57;;
6127;SDS011;7073;42.672;23.256;2023-07-30T13:32:28;5.00;;;4.80;;
6127;SDS011;7073;42.672;23.256;2023-07-30T13:34:54;7.03;;;6.70;;
6127;SDS011;7073;42.672;23.256;2023-07-30T13:37:22;5.50;;;5.30;;
6127;SDS011;7073;42.672;23.256;2023-07-30T13:39:49;5.27;;;5.07;;
6127;SDS011;7073;42.672;23.256;2023-07-30T13:42:15;5.40;;;5.20;;
6127;SDS011;7073;42.672;23.256;2023-07-30T13:44:42;6.63;;;5.97;;
6127;SDS011;7073;42.672;23.256;2023-07-30T13:47:08;6.27;;;5.97;;
6127;SDS011;7073;42.672;23.256;2023-07-30T13:49:35;5.40;;;5.20;;
6127;SDS011;7073;42.672;23.256;2023-07-30T13:52:01;5.00;;;4.80;;
6127;SDS011;7073;42.672;23.256;2023-07-30T13:54:29;5.60;;;5.37;;
6127;SDS011;7073;42.672;23.256;2023-07-30T13:56:56;5.87;;;5.57;;
6127;SDS011;7073;42.672;23.256;2023-07-30T13:59:22;6.57;;;5.83;;
6127;SDS011;7073;42.672;23.256;2023-07-30T14:01:49;5.60;;;5.40;;
6127;SDS011;7073;42.672;23.256;2023-07-30T14:04:15;5.13;;;4.93;;
6127;SDS011;7073;42.672;23.256;2023-07-30T14:06:42;5.53;;;5.33;;
6127;SDS011;7073;42.672;23.256;2023-07-30T14:09:09;4.80;;;4.60;;
6127;SDS011;7073;42.672;23.256;2023-07-30T14:11:37;4.60;;;4.40;;
6127;SDS011;7073;42.672;23.256;2023-07-30T14:14:06;4.70;;;4.50;;
6127;SDS011;7073;42.672;23.256;2023-07-30T14:16:32;4.83;;;4.63;;
6127;SDS011;7073;42.672;23.256;2023-07-30T14:18:59;5.00;;;4.80;;
6127;SDS011;7073;42.672;23.256;2023-07-30T14:21:25;4.63;;;4.43;;
6127;SDS011;7073;42.672;23.256;2023-07-30T14:23:52;4.50;;;4.30;;
6127;SDS011;7073;42.672;23.256;2023-07-30T14:26:18;8.47;;;7.77;;
6127;SDS011;7073;42.672;23.256;2023-07-30T14:28:46;4.57;;;4.37;;
6127;SDS011;7073;42.672;23.256;2023-07-30T14:31:13;5.77;;;5.50;;
6127;SDS011;7073;42.672;23.256;2023-07-30T14:33:39;4.63;;;4.40;;
6127;SDS011;7073;42.672;23.256;2023-07-30T14:36:06;5.70;;;5.40;;
6127;SDS011;7073;42.672;23.256;2023-07-30T14:38:32;4.80;;;4.60;;
6127;SDS011;7073;42.672;23.256;2023-07-30T14:41:00;5.73;;;5.53;;
6127;SDS011;7073;42.672;23.256;2023-07-30T14:43:27;5.33;;;5.03;;
6127;SDS011;7073;42.672;23.256;2023-07-30T14:45:55;5.00;;;4.80;;
6127;SDS011;7073;42.672;23.256;2023-07-30T14:48:22;5.33;;;5.13;;
6127;SDS011;7073;42.672;23.256;2023-07-30T14:50:48;5.53;;;5.30;;
6127;SDS011;7073;42.672;23.256;2023-07-30T14:53:15;5.70;;;5.40;;
6127;SDS011;7073;42.672;23.256;2023-07-30T14:55:42;4.60;;;4.40;;
6127;SDS011;7073;42.672;23.256;2023-07-30T14:58:08;4.70;;;4.50;;